Time;durP1;ratioP1;P1;durP2;ratioP2;P2;SDS_P1;SDS_P2;PMS_P1;PMS_P2;Temp;Humidity;BMP_temperature;BMP_pressure;BME280_temperature;BME280_humidity;BME280_pressure;Samples;Min_cycle;Max_cycle;Signal;HPM_P1;HPM_P2
2021/08/05 00:01:23;;;;;;;12.93;4.13;;;;;;;;;;5134752;27;20105;-73
2021/08/05 00:03:49;;;;;;;11.98;4.40;;;;;;;;;;5134677;27;20424;-75
2021/08/05 00:06:15;;;;;;;11.32;4.07;;;;;;;;;;5134644;27;20052;-74
2021/08/05 00:08:41;;;;;;;13.57;4.75;;;;;;;;;;5134567;27;20039;-75
2021/08/05 00:11:07;;;;;;;14.45;4.45;;;;;;;;;;5134400;27;20019;-74
2021/08/05 00:13:33;;;;;;;10.98;5.13;;;;;;;;;;5134937;27;20548;-74
2021/08/05 00:15:59;;;;;;;15.15;4.60;;;;;;;;;;5134769;27;20034;-75
2021/08/05 00:18:25;;;;;;;12.80;4.55;;;;;;;;;;5134675;27;20027;-74
2021/08/05 00:20:51;;;;;;;11.50;4.53;;;;;;;;;;5134552;27;20365;-73
2021/08/05 00:23:18;;;;;;;16.25;5.43;;;;;;;;;;5134508;27;20523;-74
2021/08/05 00:25:44;;;;;;;12.68;5.07;;;;;;;;;;5134711;28;20023;-73
2021/08/05 00:28:10;;;;;;;20.08;6.25;;;;;;;;;;5134409;28;20045;-73
2021/08/05 00:30:36;;;;;;;17.13;5.43;;;;;;;;;;5134399;28;20078;-74
2021/08/05 00:33:02;;;;;;;16.20;4.78;;;;;;;;;;5134330;28;20462;-76
2021/08/05 00:35:28;;;;;;;12.25;4.63;;;;;;;;;;5134280;28;20370;-75
2021/08/05 00:37:54;;;;;;;13.32;5.28;;;;;;;;;;5134431;28;20030;-75
2021/08/05 00:40:21;;;;;;;10.48;3.95;;;;;;;;;;5134437;28;20076;-75
2021/08/05 00:42:49;;;;;;;14.10;4.70;;;;;;;;;;5134267;28;20054;-75
2021/08/05 00:45:16;;;;;;;15.48;5.00;;;;;;;;;;5134298;28;20076;-75
2021/08/05 00:47:42;;;;;;;10.68;4.22;;;;;;;;;;5134196;28;20019;-75
2021/08/05 00:50:09;;;;;;;9.85;5.05;;;;;;;;;;5134215;28;20027;-75
2021/08/05 00:52:35;;;;;;;14.40;4.82;;;;;;;;;;5134196;28;20506;-75
2021/08/05 00:55:01;;;;;;;12.93;4.85;;;;;;;;;;5134351;28;20034;-74
2021/08/05 00:57:27;;;;;;;10.50;4.07;;;;;;;;;;5136899;27;20019;-75
2021/08/05 00:59:53;;;;;;;13.68;4.50;;;;;;;;;;5138337;27;20477;-75
2021/08/05 01:02:20;;;;;;;9.70;3.97;;;;;;;;;;5138255;27;20058;-75
2021/08/05 01:04:49;;;;;;;15.75;4.72;;;;;;;;;;5138100;27;20031;-74
2021/08/05 01:07:17;;;;;;;13.98;4.70;;;;;;;;;;5137907;27;20038;-75
2021/08/05 01:09:44;;;;;;;12.85;4.85;;;;;;;;;;5138424;27;20034;-75
2021/08/05 01:12:24;;;;;;;13.02;4.10;;;;;;;;;;5137919;27;20031;-75
2021/08/05 01:14:57;;;;;;;17.58;4.97;;;;;;;;;;5137880;27;20486;-75
2021/08/05 01:17:23;;;;;;;12.50;4.57;;;;;;;;;;5138050;27;20083;-74
2021/08/05 01:19:56;;;;;;;13.50;4.32;;;;;;;;;;5137804;27;20184;-74
2021/08/05 01:22:32;;;;;;;12.15;4.15;;;;;;;;;;5137616;27;20058;-75
2021/08/05 01:25:02;;;;;;;12.73;4.15;;;;;;;;;;5137521;27;20466;-74
2021/08/05 01:27:29;;;;;;;11.30;4.55;;;;;;;;;;5137619;27;20058;-74
2021/08/05 01:29:56;;;;;;;11.23;4.47;;;;;;;;;;5137617;27;20042;-74
2021/08/05 01:32:22;;;;;;;16.88;4.68;;;;;;;;;;5137568;27;20039;-74
2021/08/05 01:34:48;;;;;;;12.68;4.40;;;;;;;;;;5137475;27;20442;-74
2021/08/05 01:37:16;;;;;;;10.90;4.75;;;;;;;;;;5137599;27;20478;-74
2021/08/05 01:39:44;;;;;;;12.40;4.55;;;;;;;;;;5137427;27;20098;-74
2021/08/05 01:42:10;;;;;;;9.57;4.50;;;;;;;;;;5137375;27;20023;-74
2021/08/05 01:44:36;;;;;;;14.05;4.57;;;;;;;;;;5137334;27;20031;-74
2021/08/05 01:47:03;;;;;;;16.10;5.72;;;;;;;;;;5137235;27;20466;-74
2021/08/05 01:49:29;;;;;;;12.60;4.25;;;;;;;;;;5137337;27;20466;-74
2021/08/05 01:51:56;;;;;;;14.52;4.63;;;;;;;;;;5137206;27;20027;-73
2021/08/05 01:54:22;;;;;;;11.57;4.43;;;;;;;;;;5137104;27;20083;-75
2021/08/05 01:56:48;;;;;;;15.73;5.28;;;;;;;;;;5137128;27;20055;-74
2021/08/05 01:59:14;;;;;;;11.73;4.38;;;;;;;;;;5137107;27;20031;-74
2021/08/05 02:01:42;;;;;;;11.07;4.80;;;;;;;;;;5137085;27;20030;-74
2021/08/05 02:04:08;;;;;;;14.32;5.28;;;;;;;;;;5136959;27;20023;-75
2021/08/05 02:06:37;;;;;;;11.30;5.57;;;;;;;;;;5136970;27;20428;-74
2021/08/05 02:09:09;;;;;;;12.07;4.82;;;;;;;;;;5135951;27;20474;-75
2021/08/05 02:11:36;;;;;;;14.45;4.95;;;;;;;;;;5136947;27;20027;-73
2021/08/05 02:14:03;;;;;;;11.18;4.00;;;;;;;;;;5136834;27;20038;-74
2021/08/05 02:16:31;;;;;;;12.90;5.40;;;;;;;;;;5136822;27;20019;-74
2021/08/05 02:18:57;;;;;;;16.65;4.75;;;;;;;;;;5136634;27;20430;-75
2021/08/05 02:21:26;;;;;;;9.40;4.63;;;;;;;;;;5136803;27;20023;-74
2021/08/05 02:23:56;;;;;;;12.02;4.40;;;;;;;;;;5136441;27;20488;-75
2021/08/05 02:26:22;;;;;;;14.35;4.60;;;;;;;;;;5136527;27;20576;-76
2021/08/05 02:28:49;;;;;;;11.80;4.68;;;;;;;;;;5136264;27;20062;-74
2021/08/05 02:31:17;;;;;;;9.75;4.70;;;;;;;;;;5136706;27;20023;-74
2021/08/05 02:33:45;;;;;;;17.35;5.40;;;;;;;;;;5136325;27;20481;-74
2021/08/05 02:36:11;;;;;;;11.60;4.35;;;;;;;;;;5136356;27;20042;-75
2021/08/05 02:38:37;;;;;;;12.63;4.63;;;;;;;;;;5136190;27;20072;-75
2021/08/05 02:41:04;;;;;;;11.93;4.63;;;;;;;;;;5136336;27;20024;-75
2021/08/05 02:43:33;;;;;;;14.40;5.43;;;;;;;;;;5136300;27;20482;-74
2021/08/05 02:45:59;;;;;;;12.57;5.75;;;;;;;;;;5136194;27;20084;-74
2021/08/05 02:48:26;;;;;;;13.27;5.03;;;;;;;;;;5136212;27;20470;-74
2021/08/05 02:50:54;;;;;;;13.05;4.88;;;;;;;;;;5135936;27;20027;-74
2021/08/05 02:53:20;;;;;;;12.18;4.47;;;;;;;;;;5136122;27;20030;-74
2021/08/05 02:55:47;;;;;;;10.15;4.75;;;;;;;;;;5136102;27;20106;-74
2021/08/05 02:58:14;;;;;;;12.75;5.00;;;;;;;;;;5117698;27;20031;-75
2021/08/05 03:00:40;;;;;;;12.55;4.88;;;;;;;;;;5135892;27;20031;-74
2021/08/05 03:03:07;;;;;;;11.38;4.93;;;;;;;;;;5135898;27;20027;-74
2021/08/05 03:05:33;;;;;;;16.83;4.78;;;;;;;;;;5135702;27;20072;-74
2021/08/05 03:07:59;;;;;;;12.63;4.85;;;;;;;;;;5135723;27;20031;-74
2021/08/05 03:10:25;;;;;;;12.50;5.68;;;;;;;;;;5135670;27;20481;-75
2021/08/05 03:12:51;;;;;;;15.02;4.90;;;;;;;;;;5135778;27;20100;-74
2021/08/05 03:15:17;;;;;;;14.93;5.70;;;;;;;;;;5135581;27;20038;-74
2021/08/05 03:17:43;;;;;;;14.13;4.95;;;;;;;;;;5135401;27;20029;-74
2021/08/05 03:20:15;;;;;;;14.85;5.45;;;;;;;;;;5135463;27;20062;-74
2021/08/05 03:22:41;;;;;;;18.40;5.47;;;;;;;;;;5135343;27;20517;-75
2021/08/05 03:25:07;;;;;;;18.25;5.90;;;;;;;;;;5135390;27;20094;-74
2021/08/05 03:27:33;;;;;;;16.85;5.60;;;;;;;;;;5135179;27;20025;-74
2021/08/05 03:30:00;;;;;;;13.93;5.65;;;;;;;;;;5135323;27;20030;-74
2021/08/05 03:32:26;;;;;;;13.80;5.05;;;;;;;;;;5135195;27;20023;-74
2021/08/05 03:34:52;;;;;;;11.98;5.53;;;;;;;;;;5135054;27;20404;-75
2021/08/05 03:37:18;;;;;;;11.88;5.18;;;;;;;;;;5135099;27;20030;-75
2021/08/05 03:39:44;;;;;;;14.05;5.28;;;;;;;;;;5135097;27;20023;-75
2021/08/05 03:42:10;;;;;;;18.80;7.00;;;;;;;;;;5135073;27;20038;-75
2021/08/05 03:44:36;;;;;;;17.58;5.85;;;;;;;;;;5135066;27;20030;-75
2021/08/05 03:47:02;;;;;;;12.70;4.82;;;;;;;;;;5135135;27;20083;-75
2021/08/05 03:49:28;;;;;;;11.60;4.82;;;;;;;;;;5135153;27;20031;-74
2021/08/05 03:51:55;;;;;;;11.13;5.38;;;;;;;;;;5135137;27;20407;-74
2021/08/05 03:54:21;;;;;;;16.35;5.90;;;;;;;;;;5134830;27;20035;-75
2021/08/05 03:56:47;;;;;;;14.82;4.90;;;;;;;;;;5134798;27;20038;-74
2021/08/05 03:59:13;;;;;;;14.38;5.75;;;;;;;;;;5134833;27;20015;-75
2021/08/05 04:01:39;;;;;;;15.02;5.88;;;;;;;;;;5134692;27;20030;-73
2021/08/05 04:04:05;;;;;;;15.88;5.82;;;;;;;;;;5134955;27;20031;-74
2021/08/05 04:06:31;;;;;;;15.13;6.15;;;;;;;;;;5134662;27;20461;-74
2021/08/05 04:08:57;;;;;;;15.23;5.65;;;;;;;;;;5134754;27;20079;-75
2021/08/05 04:11:23;;;;;;;13.23;6.30;;;;;;;;;;5134504;27;20469;-75
2021/08/05 04:13:50;;;;;;;16.90;6.45;;;;;;;;;;5116224;27;20374;-75
2021/08/05 04:16:16;;;;;;;14.52;6.30;;;;;;;;;;5134643;27;20027;-75
2021/08/05 04:18:42;;;;;;;15.85;6.93;;;;;;;;;;5134488;27;20568;-75
2021/08/05 04:21:08;;;;;;;12.65;6.13;;;;;;;;;;5134536;27;20030;-74
2021/08/05 04:23:35;;;;;;;25.60;6.38;;;;;;;;;;5134219;27;20055;-74
2021/08/05 04:26:01;;;;;;;14.73;5.85;;;;;;;;;;5134644;27;20026;-74
2021/08/05 04:28:27;;;;;;;26.63;8.00;;;;;;;;;;5134535;28;20031;-75
2021/08/05 04:30:53;;;;;;;46.17;9.13;;;;;;;;;;5134190;27;20023;-74
2021/08/05 04:33:20;;;;;;;19.90;6.63;;;;;;;;;;5134326;28;20027;-75
2021/08/05 04:35:46;;;;;;;22.15;7.10;;;;;;;;;;5134446;28;20191;-75
2021/08/05 04:38:14;;;;;;;14.65;6.57;;;;;;;;;;5134205;28;20393;-75
2021/08/05 04:40:40;;;;;;;14.05;6.18;;;;;;;;;;5134246;28;20114;-75
2021/08/05 04:43:07;;;;;;;20.75;8.00;;;;;;;;;;5134290;28;20451;-74
2021/08/05 04:45:33;;;;;;;13.68;5.22;;;;;;;;;;5134294;28;20028;-75
2021/08/05 04:48:00;;;;;;;15.20;5.35;;;;;;;;;;5134145;28;20037;-74
2021/08/05 04:50:28;;;;;;;15.07;5.50;;;;;;;;;;5134198;28;20030;-74
2021/08/05 04:52:54;;;;;;;12.57;5.30;;;;;;;;;;5134016;28;20055;-75
2021/08/05 04:55:21;;;;;;;16.10;6.35;;;;;;;;;;5134142;28;20023;-74
2021/08/05 04:57:48;;;;;;;19.60;6.30;;;;;;;;;;5133898;28;20382;-75
2021/08/05 05:00:15;;;;;;;18.65;7.25;;;;;;;;;;5134030;28;20028;-76
2021/08/05 05:02:41;;;;;;;16.33;7.15;;;;;;;;;;5133978;28;20023;-74
2021/08/05 05:05:07;;;;;;;17.02;8.10;;;;;;;;;;5134071;28;20477;-73
2021/08/05 05:07:34;;;;;;;17.35;7.47;;;;;;;;;;5133679;28;20028;-74
2021/08/05 05:10:00;;;;;;;16.70;7.15;;;;;;;;;;5134178;28;20037;-73
2021/08/05 05:12:26;;;;;;;15.82;5.72;;;;;;;;;;5133935;28;20038;-73
2021/08/05 05:14:52;;;;;;;14.82;5.80;;;;;;;;;;5134075;28;20386;-74
2021/08/05 05:17:18;;;;;;;19.67;7.53;;;;;;;;;;5134026;28;20070;-74
2021/08/05 05:19:44;;;;;;;17.02;7.07;;;;;;;;;;5133502;28;20496;-72
2021/08/05 05:22:10;;;;;;;15.07;7.20;;;;;;;;;;5133805;28;20034;-75
2021/08/05 05:24:37;;;;;;;15.18;6.22;;;;;;;;;;5133610;28;20467;-74
2021/08/05 05:27:03;;;;;;;16.17;6.38;;;;;;;;;;5131668;28;20497;-74
2021/08/05 05:29:29;;;;;;;16.85;7.40;;;;;;;;;;5131961;28;20035;-75
2021/08/05 05:31:55;;;;;;;16.05;7.13;;;;;;;;;;5148629;27;20072;-75
2021/08/05 05:34:21;;;;;;;17.42;6.93;;;;;;;;;;5152648;27;20027;-78
2021/08/05 05:36:47;;;;;;;18.02;7.30;;;;;;;;;;5152503;27;20027;-76
2021/08/05 05:39:14;;;;;;;20.40;8.55;;;;;;;;;;5132177;27;20038;-76
2021/08/05 05:41:40;;;;;;;15.15;7.72;;;;;;;;;;5131245;27;20023;-76
2021/08/05 05:44:06;;;;;;;15.80;8.50;;;;;;;;;;5130019;27;20079;-76
2021/08/05 05:46:32;;;;;;;15.13;8.95;;;;;;;;;;5135251;27;20030;-75
2021/08/05 05:48:58;;;;;;;16.13;9.90;;;;;;;;;;5135574;27;20117;-77
2021/08/05 05:51:24;;;;;;;19.33;9.95;;;;;;;;;;5135328;27;20038;-76
2021/08/05 05:53:51;;;;;;;21.58;10.57;;;;;;;;;;5133012;27;20134;-76
2021/08/05 05:56:17;;;;;;;17.42;10.32;;;;;;;;;;5135237;27;20102;-76
2021/08/05 05:58:43;;;;;;;24.05;12.80;;;;;;;;;;5135320;27;20132;-75
2021/08/05 06:01:09;;;;;;;16.58;10.55;;;;;;;;;;5136204;27;20049;-76
2021/08/05 06:03:36;;;;;;;18.20;9.57;;;;;;;;;;5135621;27;20063;-76
2021/08/05 06:06:02;;;;;;;24.73;12.95;;;;;;;;;;5135731;27;20098;-77
2021/08/05 06:08:28;;;;;;;19.23;9.82;;;;;;;;;;5135398;27;20583;-74
2021/08/05 06:10:54;;;;;;;17.88;8.77;;;;;;;;;;5135646;27;20110;-75
2021/08/05 06:13:20;;;;;;;16.48;9.30;;;;;;;;;;5135503;27;20033;-72
2021/08/05 06:15:46;;;;;;;18.52;8.75;;;;;;;;;;5135200;27;20060;-74
2021/08/05 06:18:12;;;;;;;16.92;8.80;;;;;;;;;;5135686;27;20031;-75
2021/08/05 06:20:38;;;;;;;15.23;9.05;;;;;;;;;;5135089;27;20084;-72
2021/08/05 06:23:08;;;;;;;19.45;8.48;;;;;;;;;;5135571;27;20099;-76
2021/08/05 06:25:34;;;;;;;14.98;8.40;;;;;;;;;;5135006;27;20043;-76
2021/08/05 06:28:01;;;;;;;29.58;10.02;;;;;;;;;;5134244;27;20619;-75
2021/08/05 06:30:27;;;;;;;25.83;10.25;;;;;;;;;;5133969;27;20026;-76
2021/08/05 06:32:53;;;;;;;17.60;8.98;;;;;;;;;;5128883;27;20397;-75
2021/08/05 06:35:20;;;;;;;25.48;11.23;;;;;;;;;;5135012;27;20524;-74
2021/08/05 06:37:46;;;;;;;20.75;10.82;;;;;;;;;;5134739;27;20034;-76
2021/08/05 06:40:12;;;;;;;22.40;9.80;;;;;;;;;;5135140;27;20023;-75
2021/08/05 06:42:39;;;;;;;23.35;10.65;;;;;;;;;;5134064;27;20035;-76
2021/08/05 06:45:06;;;;;;;61.33;15.25;;;;;;;;;;5135101;27;20031;-77
2021/08/05 06:47:33;;;;;;;23.73;12.05;;;;;;;;;;5134559;27;20031;-77
2021/08/05 06:49:59;;;;;;;25.73;12.35;;;;;;;;;;5134724;27;20106;-76
2021/08/05 06:52:25;;;;;;;20.08;10.60;;;;;;;;;;5134643;27;20030;-75
2021/08/05 06:54:51;;;;;;;18.95;11.10;;;;;;;;;;5134442;27;20039;-76
2021/08/05 06:57:18;;;;;;;20.70;11.38;;;;;;;;;;5134667;27;20019;-75
2021/08/05 06:59:44;;;;;;;21.58;12.57;;;;;;;;;;5134256;27;20027;-75
2021/08/05 07:02:10;;;;;;;31.38;13.73;;;;;;;;;;5134748;27;20024;-75
2021/08/05 07:04:36;;;;;;;27.02;13.65;;;;;;;;;;5134321;27;20020;-75
2021/08/05 07:07:03;;;;;;;26.58;14.68;;;;;;;;;;5116134;27;20106;-75
2021/08/05 07:09:29;;;;;;;20.05;12.73;;;;;;;;;;5134510;27;20034;-74
2021/08/05 07:11:55;;;;;;;27.40;12.02;;;;;;;;;;5134063;27;20476;-75
2021/08/05 07:14:21;;;;;;;39.38;21.50;;;;;;;;;;5134310;27;20038;-78
2021/08/05 07:16:47;;;;;;;30.35;12.23;;;;;;;;;;5134103;27;20023;-75
2021/08/05 07:19:13;;;;;;;20.08;10.40;;;;;;;;;;5131732;27;20409;-76
2021/08/05 07:21:39;;;;;;;33.25;11.73;;;;;;;;;;5133492;27;20054;-75
2021/08/05 07:24:05;;;;;;;20.15;10.27;;;;;;;;;;5133877;27;20077;-75
2021/08/05 07:26:31;;;;;;;20.13;9.57;;;;;;;;;;5134119;27;20035;-75
2021/08/05 07:28:58;;;;;;;22.17;10.60;;;;;;;;;;5133528;27;20035;-76
2021/08/05 07:31:24;;;;;;;19.35;10.75;;;;;;;;;;5134139;27;20059;-75
2021/08/05 07:33:52;;;;;;;20.60;10.38;;;;;;;;;;5133444;27;20494;-77
2021/08/05 07:36:19;;;;;;;21.15;10.75;;;;;;;;;;5133123;27;20110;-74
2021/08/05 07:38:45;;;;;;;21.00;10.45;;;;;;;;;;5151596;27;20022;-77
2021/08/05 07:41:11;;;;;;;16.60;9.60;;;;;;;;;;5154462;27;20350;-75
2021/08/05 07:43:37;;;;;;;20.90;9.55;;;;;;;;;;5137188;27;20027;-76
2021/08/05 07:46:03;;;;;;;20.48;9.90;;;;;;;;;;5132596;27;20027;-75
2021/08/05 07:48:30;;;;;;;19.70;9.32;;;;;;;;;;5130180;27;20034;-76
2021/08/05 07:50:56;;;;;;;42.67;12.27;;;;;;;;;;5132509;27;20432;-75
2021/08/05 07:53:22;;;;;;;24.27;9.60;;;;;;;;;;5132641;27;20023;-74
2021/08/05 07:55:48;;;;;;;15.40;9.45;;;;;;;;;;5133036;27;20027;-74
2021/08/05 07:58:14;;;;;;;21.88;10.73;;;;;;;;;;5133435;27;20023;-74
2021/08/05 08:00:40;;;;;;;28.63;12.60;;;;;;;;;;5133766;27;20119;-73
2021/08/05 08:03:08;;;;;;;22.42;10.13;;;;;;;;;;5124749;27;20102;-73
2021/08/05 08:05:35;;;;;;;17.10;8.25;;;;;;;;;;5131438;27;20168;-78
2021/08/05 08:08:01;;;;;;;19.55;9.60;;;;;;;;;;5132953;27;20042;-75
2021/08/05 08:10:27;;;;;;;16.30;8.18;;;;;;;;;;5133292;27;20478;-74
2021/08/05 08:12:54;;;;;;;25.85;7.53;;;;;;;;;;5133177;27;20105;-75
2021/08/05 08:15:24;;;;;;;32.88;14.48;;;;;;;;;;5133144;27;20023;-74
2021/08/05 08:17:50;;;;;;;55.45;10.93;;;;;;;;;;5133145;27;20440;-75
2021/08/05 08:20:16;;;;;;;15.95;7.32;;;;;;;;;;5132978;27;20386;-77
2021/08/05 08:22:43;;;;;;;26.15;7.32;;;;;;;;;;5132878;28;20063;-75
2021/08/05 08:25:09;;;;;;;25.70;7.38;;;;;;;;;;5133176;27;20019;-73
2021/08/05 08:27:35;;;;;;;15.02;5.30;;;;;;;;;;5133312;27;20027;-75
2021/08/05 08:30:01;;;;;;;104.35;14.45;;;;;;;;;;5132403;28;20031;-75
2021/08/05 08:32:27;;;;;;;16.38;5.90;;;;;;;;;;5132953;28;20051;-77
2021/08/05 08:34:54;;;;;;;56.22;9.38;;;;;;;;;;5133076;28;20382;-74
2021/08/05 08:37:20;;;;;;;14.93;5.72;;;;;;;;;;5138401;27;20031;-74
2021/08/05 08:39:46;;;;;;;25.23;6.78;;;;;;;;;;5154034;27;20022;-72
2021/08/05 08:42:14;;;;;;;21.63;6.60;;;;;;;;;;5153542;27;20083;-76
2021/08/05 08:44:40;;;;;;;32.22;8.13;;;;;;;;;;5148743;27;20031;-75
2021/08/05 08:47:07;;;;;;;16.88;6.10;;;;;;;;;;5132167;28;20031;-76
2021/08/05 08:49:33;;;;;;;16.98;5.35;;;;;;;;;;5132940;28;20126;-76
2021/08/05 08:52:00;;;;;;;26.67;6.38;;;;;;;;;;5133159;28;20030;-73
2021/08/05 08:54:26;;;;;;;20.63;5.72;;;;;;;;;;5132581;28;20069;-73
2021/08/05 08:56:53;;;;;;;16.55;6.88;;;;;;;;;;5133001;28;20054;-77
2021/08/05 08:59:19;;;;;;;17.25;6.35;;;;;;;;;;5132507;28;20035;-75
2021/08/05 09:01:46;;;;;;;19.75;6.13;;;;;;;;;;5132684;28;20051;-75
2021/08/05 09:04:12;;;;;;;28.70;7.50;;;;;;;;;;5132596;28;20031;-75
2021/08/05 09:06:40;;;;;;;14.85;4.95;;;;;;;;;;5132877;28;20034;-77
2021/08/05 09:09:07;;;;;;;17.33;4.95;;;;;;;;;;5132523;28;20039;-76
2021/08/05 09:11:33;;;;;;;16.58;6.00;;;;;;;;;;5132726;28;20027;-76
2021/08/05 09:13:59;;;;;;;20.17;6.47;;;;;;;;;;5114489;28;20024;-76
2021/08/05 09:16:28;;;;;;;15.82;6.32;;;;;;;;;;5131915;28;20027;-77
2021/08/05 09:18:57;;;;;;;22.17;7.00;;;;;;;;;;5134658;27;20155;-80
2021/08/05 09:21:26;;;;;;;35.63;7.20;;;;;;;;;;5133767;27;20100;-77
2021/08/05 09:24:01;;;;;;;18.17;5.70;;;;;;;;;;5136417;27;20051;-77
2021/08/05 09:26:34;;;;;;;24.00;5.63;;;;;;;;;;5136457;27;20033;-78
2021/08/05 09:29:00;;;;;;;;;;;;;;;;;;5118162;27;20035;-75
2021/08/05 09:31:26;;;;;;;21.83;6.30;;;;;;;;;;5135987;27;19904;-74
2021/08/05 09:33:59;;;;;;;17.20;6.55;;;;;;;;;;5136404;27;20019;-75
2021/08/05 09:36:27;;;;;;;15.43;5.88;;;;;;;;;;5136370;27;20023;-76
2021/08/05 09:38:53;;;;;;;17.05;6.13;;;;;;;;;;5133880;27;20038;-74
2021/08/05 09:41:19;;;;;;;14.23;5.45;;;;;;;;;;5133820;27;20091;-76
2021/08/05 09:43:46;;;;;;;16.05;5.25;;;;;;;;;;5135649;27;20023;-74
2021/08/05 09:46:13;;;;;;;18.48;8.15;;;;;;;;;;5135895;27;20112;-74
2021/08/05 09:48:39;;;;;;;15.95;5.38;;;;;;;;;;5135964;27;20047;-77
2021/08/05 09:51:06;;;;;;;17.02;6.50;;;;;;;;;;5134555;27;20553;-74
2021/08/05 09:53:32;;;;;;;18.15;6.28;;;;;;;;;;5134696;27;20023;-75
2021/08/05 09:56:12;;;;;;;44.33;7.93;;;;;;;;;;5131781;27;20386;-76
2021/08/05 09:58:41;;;;;;;29.15;5.90;;;;;;;;;;5136054;27;20031;-76
2021/08/05 10:01:07;;;;;;;12.32;4.90;;;;;;;;;;5134325;27;20023;-74
2021/08/05 10:03:39;;;;;;;20.15;5.38;;;;;;;;;;5131650;27;20059;-75
2021/08/05 10:06:07;;;;;;;41.45;7.32;;;;;;;;;;5135204;27;20031;-74
2021/08/05 10:08:37;;;;;;;18.75;5.38;;;;;;;;;;5129712;27;20040;-77
2021/08/05 10:11:04;;;;;;;22.77;6.63;;;;;;;;;;5131625;27;20024;-72
2021/08/05 10:13:34;;;;;;;18.75;7.15;;;;;;;;;;5133869;27;20023;-74
2021/08/05 10:16:00;;;;;;;20.90;6.80;;;;;;;;;;5129453;27;20035;-74
2021/08/05 10:18:30;;;;;;;23.85;6.18;;;;;;;;;;5131616;27;20478;-75
2021/08/05 10:20:57;;;;;;;19.33;6.50;;;;;;;;;;5131235;27;20438;-75
2021/08/05 10:23:24;;;;;;;30.25;6.57;;;;;;;;;;5134481;27;20456;-75
2021/08/05 10:25:50;;;;;;;29.73;6.53;;;;;;;;;;5135059;27;20031;-75
2021/08/05 10:28:17;;;;;;;18.38;6.00;;;;;;;;;;5135186;27;20381;-76
2021/08/05 10:30:44;;;;;;;11.93;6.30;;;;;;;;;;5130774;27;20039;-76
2021/08/05 10:33:10;;;;;;;15.77;6.13;;;;;;;;;;5127585;27;20049;-74
2021/08/05 10:35:37;;;;;;;29.08;7.88;;;;;;;;;;5118231;27;20057;-75
2021/08/05 10:38:05;;;;;;;21.13;6.50;;;;;;;;;;5133348;27;20427;-73
2021/08/05 10:40:31;;;;;;;24.77;6.70;;;;;;;;;;5130369;27;20027;-76
2021/08/05 10:42:59;;;;;;;31.33;7.70;;;;;;;;;;5133427;27;20026;-77
2021/08/05 10:45:26;;;;;;;17.05;6.65;;;;;;;;;;5134403;27;20101;-76
2021/08/05 10:47:55;;;;;;;13.70;6.18;;;;;;;;;;5132364;27;20517;-76
2021/08/05 10:50:22;;;;;;;13.60;7.18;;;;;;;;;;5130764;27;20034;-75
2021/08/05 10:52:51;;;;;;;24.90;6.80;;;;;;;;;;5132675;27;20111;-76
2021/08/05 10:55:23;;;;;;;20.20;6.65;;;;;;;;;;5128588;27;20039;-74
2021/08/05 10:58:08;;;;;;;21.17;7.07;;;;;;;;;;5132025;27;20105;-72
2021/08/05 11:00:53;;;;;;;18.65;7.00;;;;;;;;;;5130300;27;20020;-73
2021/08/05 11:03:35;;;;;;;29.38;7.60;;;;;;;;;;5130286;27;20023;-74
2021/08/05 11:06:03;;;;;;;25.47;7.80;;;;;;;;;;5134630;27;20023;-74
2021/08/05 11:08:30;;;;;;;22.52;7.97;;;;;;;;;;5133504;27;20482;-75
2021/08/05 11:11:14;;;;;;;23.23;8.27;;;;;;;;;;5134043;27;20035;-73
2021/08/05 11:13:41;;;;;;;19.63;7.30;;;;;;;;;;5131642;27;20517;-74
2021/08/05 11:16:07;;;;;;;20.23;7.53;;;;;;;;;;5134090;27;20034;-74
2021/08/05 11:18:33;;;;;;;25.50;6.93;;;;;;;;;;5133981;27;20031;-74
2021/08/05 11:20:59;;;;;;;50.30;9.13;;;;;;;;;;5133903;27;20386;-74
2021/08/05 11:23:44;;;;;;;28.02;7.72;;;;;;;;;;5133866;27;20078;-74
2021/08/05 11:26:13;;;;;;;22.20;6.53;;;;;;;;;;5134247;27;20049;-73
2021/08/05 11:28:42;;;;;;;16.67;5.80;;;;;;;;;;5134099;27;20027;-75
2021/08/05 11:31:12;;;;;;;14.93;5.85;;;;;;;;;;5132558;27;20019;-73
2021/08/05 11:33:41;;;;;;;22.88;6.10;;;;;;;;;;5134156;27;20489;-74
2021/08/05 11:36:26;;;;;;;27.23;6.72;;;;;;;;;;5133770;27;20050;-74
2021/08/05 11:38:59;;;;;;;54.65;10.90;;;;;;;;;;5118355;27;20106;-75
2021/08/05 11:41:44;;;;;;;39.50;8.07;;;;;;;;;;5113069;28;20020;-75
2021/08/05 11:44:28;;;;;;;48.88;9.63;;;;;;;;;;5129941;27;20027;-74
2021/08/05 11:47:01;;;;;;;27.05;6.72;;;;;;;;;;5128076;27;20027;-74
2021/08/05 11:49:33;;;;;;;22.83;5.60;;;;;;;;;;5130478;27;20117;-74
2021/08/05 11:52:00;;;;;;;18.58;5.35;;;;;;;;;;5131940;27;20023;-75
2021/08/05 11:54:26;;;;;;;14.93;5.45;;;;;;;;;;5132607;27;20081;-74
2021/08/05 11:56:59;;;;;;;21.70;7.38;;;;;;;;;;5133211;27;20493;-75
2021/08/05 11:59:25;;;;;;;;;;;;;;;;;;5127091;27;20029;-76
2021/08/05 12:02:04;;;;;;;22.83;6.00;;;;;;;;;;5134036;27;20001;-75
2021/08/05 12:04:30;;;;;;;19.40;5.85;;;;;;;;;;5132709;27;20031;-74
2021/08/05 12:07:15;;;;;;;19.65;5.60;;;;;;;;;;5134062;27;20467;-77
2021/08/05 12:09:41;;;;;;;24.73;7.18;;;;;;;;;;5141390;27;20101;-75
2021/08/05 12:12:07;;;;;;;31.13;7.35;;;;;;;;;;5116247;27;20023;-74
2021/08/05 12:14:34;;;;;;;16.98;6.03;;;;;;;;;;5116483;27;20019;-73
2021/08/05 12:17:00;;;;;;;20.58;5.25;;;;;;;;;;5113194;28;20067;-73
2021/08/05 12:19:29;;;;;;;34.10;6.57;;;;;;;;;;5128623;27;20034;-76
2021/08/05 12:21:56;;;;;;;25.63;6.05;;;;;;;;;;5125580;27;20475;-74
2021/08/05 12:24:24;;;;;;;26.15;6.03;;;;;;;;;;5145672;27;20405;-74
2021/08/05 12:26:57;;;;;;;39.47;6.68;;;;;;;;;;5136899;27;20038;-75
2021/08/05 12:29:23;;;;;;;25.88;14.45;;;;;;;;;;5134252;27;20035;-76
2021/08/05 12:31:49;;;;;;;20.60;6.70;;;;;;;;;;5134163;27;20023;-75
2021/08/05 12:34:16;;;;;;;21.50;6.90;;;;;;;;;;5132918;27;20104;-74
2021/08/05 12:36:42;;;;;;;39.50;6.35;;;;;;;;;;5133350;27;20039;-75
2021/08/05 12:39:08;;;;;;;46.92;9.23;;;;;;;;;;5132236;27;20031;-74
2021/08/05 12:41:38;;;;;;;18.10;5.72;;;;;;;;;;5130101;27;20106;-74
2021/08/05 12:44:10;;;;;;;27.25;5.45;;;;;;;;;;5131820;27;20486;-78
2021/08/05 12:46:37;;;;;;;20.83;5.18;;;;;;;;;;5131614;28;20027;-74
2021/08/05 12:49:03;;;;;;;13.77;3.72;;;;;;;;;;5131463;27;20034;-74
2021/08/05 12:51:31;;;;;;;20.67;6.00;;;;;;;;;;5130516;27;20079;-75
2021/08/05 12:54:18;;;;;;;36.25;6.75;;;;;;;;;;5117295;27;20034;-74
2021/08/05 12:56:46;;;;;;;55.35;9.32;;;;;;;;;;5132340;27;20533;-76
2021/08/05 12:59:13;;;;;;;19.25;5.97;;;;;;;;;;5129661;27;20098;-75
2021/08/05 13:01:39;;;;;;;32.38;6.20;;;;;;;;;;5130920;27;20130;-74
2021/08/05 13:04:20;;;;;;;18.38;4.80;;;;;;;;;;5132209;27;20042;-75
2021/08/05 13:06:52;;;;;;;19.55;5.10;;;;;;;;;;5129454;27;20051;-73
2021/08/05 13:09:18;;;;;;;16.73;5.18;;;;;;;;;;5137037;27;20043;-74
2021/08/05 13:11:45;;;;;;;16.55;4.60;;;;;;;;;;5136019;27;20031;-74
2021/08/05 13:14:30;;;;;;;18.27;5.05;;;;;;;;;;5135476;27;20081;-73
2021/08/05 13:17:03;;;;;;;20.00;5.07;;;;;;;;;;5136925;27;20031;-74
2021/08/05 13:19:29;;;;;;;;;;;;;;;;;;5136136;27;20023;-73
2021/08/05 13:21:56;;;;;;;26.50;6.63;;;;;;;;;;5135348;27;19919;-74
2021/08/05 13:24:27;;;;;;;18.15;5.68;;;;;;;;;;5136751;27;20019;-73
2021/08/05 13:26:56;;;;;;;20.50;7.07;;;;;;;;;;5136229;27;20034;-74
2021/08/05 13:29:41;;;;;;;21.58;5.95;;;;;;;;;;5136128;27;20118;-74
2021/08/05 13:32:11;;;;;;;23.20;5.75;;;;;;;;;;5136662;27;20103;-73
2021/08/05 13:34:37;;;;;;;28.92;8.25;;;;;;;;;;5136428;27;20023;-74
2021/08/05 13:37:04;;;;;;;24.85;6.28;;;;;;;;;;5134515;27;20035;-74
2021/08/05 13:39:50;;;;;;;24.90;5.78;;;;;;;;;;5136241;27;20429;-74
2021/08/05 13:42:17;;;;;;;29.08;6.60;;;;;;;;;;5135252;27;20077;-75
2021/08/05 13:44:44;;;;;;;20.50;6.53;;;;;;;;;;5135070;27;20031;-75
2021/08/05 13:47:10;;;;;;;22.42;5.68;;;;;;;;;;5135207;27;20051;-73
2021/08/05 13:49:37;;;;;;;22.00;5.30;;;;;;;;;;5135224;27;20091;-74
2021/08/05 13:52:04;;;;;;;24.98;6.80;;;;;;;;;;5135808;27;20132;-74
2021/08/05 13:54:30;;;;;;;29.13;6.93;;;;;;;;;;5136273;27;20532;-70
2021/08/05 13:56:59;;;;;;;17.48;5.25;;;;;;;;;;5134060;27;20386;-74
2021/08/05 13:59:25;;;;;;;20.83;6.45;;;;;;;;;;5136103;27;20034;-74
2021/08/05 14:01:51;;;;;;;25.60;6.18;;;;;;;;;;5135442;27;20043;-74
2021/08/05 14:04:17;;;;;;;24.15;5.97;;;;;;;;;;5134082;27;20111;-74
2021/08/05 14:06:43;;;;;;;19.75;5.85;;;;;;;;;;5135315;27;20031;-73
2021/08/05 14:09:10;;;;;;;20.35;6.63;;;;;;;;;;5135711;27;20039;-72
2021/08/05 14:11:37;;;;;;;22.48;6.25;;;;;;;;;;5135922;27;20504;-74
2021/08/05 14:14:03;;;;;;;21.35;6.53;;;;;;;;;;5135516;27;20030;-72
2021/08/05 14:16:29;;;;;;;24.95;6.82;;;;;;;;;;5135125;27;20050;-74
2021/08/05 14:18:55;;;;;;;26.35;18.27;;;;;;;;;;5135076;27;20375;-74
2021/08/05 14:21:22;;;;;;;20.98;6.97;;;;;;;;;;5100553;27;20066;-73
2021/08/05 14:23:48;;;;;;;25.75;7.30;;;;;;;;;;5135441;27;20047;-72
2021/08/05 14:26:14;;;;;;;29.38;8.73;;;;;;;;;;5135485;27;20023;-75
2021/08/05 14:28:40;;;;;;;32.70;7.57;;;;;;;;;;5135014;27;20080;-74
2021/08/05 14:31:07;;;;;;;38.65;8.32;;;;;;;;;;5133628;27;20027;-75